sensor_id;sensor_type;location;lat;lon;timestamp;pressure;altitude;pressure_sealevel;temperature;humidity
36788;BME280;22738;45.560;9.434;2022-12-24T00:03:26;99801.41;;;8.95;100.00
36788;BME280;22738;45.560;9.434;2022-12-24T00:10:09;99765.38;;;8.92;100.00
36788;BME280;22738;45.560;9.434;2022-12-24T00:16:55;99681.66;;;8.94;100.00
36788;BME280;22738;45.560;9.434;2022-12-24T00:23:36;99822.50;;;8.87;100.00
36788;BME280;22738;45.560;9.434;2022-12-24T00:30:17;99806.56;;;8.95;100.00
36788;BME280;22738;45.560;9.434;2022-12-24T00:36:58;99809.91;;;8.97;100.00
36788;BME280;22738;45.560;9.434;2022-12-24T00:43:42;99839.97;;;8.98;100.00
36788;BME280;22738;45.560;9.434;2022-12-24T00:50:23;99824.47;;;8.98;100.00
36788;BME280;22738;45.560;9.434;2022-12-24T00:57:04;99840.72;;;9.00;100.00
36788;BME280;22738;45.560;9.434;2022-12-24T01:03:46;99811.38;;;9.01;100.00
36788;BME280;22738;45.560;9.434;2022-12-24T01:10:31;99836.28;;;9.02;100.00
36788;BME280;22738;45.560;9.434;2022-12-24T01:17:18;99861.41;;;9.00;100.00
36788;BME280;22738;45.560;9.434;2022-12-24T01:23:59;99864.19;;;8.97;100.00
36788;BME280;22738;45.560;9.434;2022-12-24T01:30:48;99861.75;;;8.94;100.00
36788;BME280;22738;45.560;9.434;2022-12-24T01:37:37;99873.09;;;8.91;100.00
36788;BME280;22738;45.560;9.434;2022-12-24T01:58:08;99804.91;;;8.94;100.00
36788;BME280;22738;45.560;9.434;2022-12-24T02:05:02;99770.25;;;8.82;100.00
36788;BME280;22738;45.560;9.434;2022-12-24T02:11:46;99837.59;;;8.79;100.00
36788;BME280;22738;45.560;9.434;2022-12-24T02:25:34;99799.69;;;8.80;100.00
36788;BME280;22738;45.560;9.434;2022-12-24T02:32:34;99812.28;;;8.86;100.00
36788;BME280;22738;45.560;9.434;2022-12-24T02:39:28;99829.69;;;8.82;100.00
36788;BME280;22738;45.560;9.434;2022-12-24T02:46:17;99827.78;;;8.86;100.00
36788;BME280;22738;45.560;9.434;2022-12-24T02:52:59;99793.59;;;8.81;100.00
36788;BME280;22738;45.560;9.434;2022-12-24T03:00:10;99862.28;;;8.85;100.00
36788;BME280;22738;45.560;9.434;2022-12-24T03:07:02;99838.13;;;8.86;100.00
36788;BME280;22738;45.560;9.434;2022-12-24T03:13:47;99813.75;;;8.90;100.00
36788;BME280;22738;45.560;9.434;2022-12-24T03:20:43;99848.19;;;8.90;100.00
36788;BME280;22738;45.560;9.434;2022-12-24T03:27:28;99850.47;;;8.81;100.00
36788;BME280;22738;45.560;9.434;2022-12-24T03:34:11;99829.53;;;8.85;100.00
36788;BME280;22738;45.560;9.434;2022-12-24T03:40:52;99808.75;;;8.87;100.00
36788;BME280;22738;45.560;9.434;2022-12-24T03:47:40;99819.09;;;8.87;100.00
36788;BME280;22738;45.560;9.434;2022-12-24T03:54:24;99811.25;;;8.88;100.00
36788;BME280;22738;45.560;9.434;2022-12-24T04:01:10;99843.59;;;8.80;100.00
36788;BME280;22738;45.560;9.434;2022-12-24T04:07:56;99850.78;;;8.75;100.00
36788;BME280;22738;45.560;9.434;2022-12-24T04:14:38;99821.09;;;8.82;100.00
36788;BME280;22738;45.560;9.434;2022-12-24T04:21:19;99795.63;;;8.76;100.00
36788;BME280;22738;45.560;9.434;2022-12-24T04:28:02;99794.50;;;8.80;100.00
36788;BME280;22738;45.560;9.434;2022-12-24T04:34:43;99788.44;;;8.81;100.00
36788;BME280;22738;45.560;9.434;2022-12-24T04:41:25;99803.09;;;8.80;100.00
36788;BME280;22738;45.560;9.434;2022-12-24T04:48:08;99793.94;;;8.75;100.00
36788;BME280;22738;45.560;9.434;2022-12-24T04:54:52;99810.91;;;8.65;100.00
36788;BME280;22738;45.560;9.434;2022-12-24T05:01:38;99839.16;;;8.68;100.00
36788;BME280;22738;45.560;9.434;2022-12-24T05:08:20;99833.78;;;8.71;100.00
36788;BME280;22738;45.560;9.434;2022-12-24T05:15:04;99849.50;;;8.68;100.00
36788;BME280;22738;45.560;9.434;2022-12-24T05:21:49;99845.63;;;8.75;100.00
36788;BME280;22738;45.560;9.434;2022-12-24T05:28:59;99831.63;;;8.79;100.00
36788;BME280;22738;45.560;9.434;2022-12-24T05:35:51;99817.88;;;8.78;100.00
36788;BME280;22738;45.560;9.434;2022-12-24T05:42:36;99828.47;;;8.74;100.00
36788;BME280;22738;45.560;9.434;2022-12-24T05:49:19;99842.47;;;8.70;100.00
36788;BME280;22738;45.560;9.434;2022-12-24T05:56:13;99822.72;;;8.69;100.00
36788;BME280;22738;45.560;9.434;2022-12-24T06:02:54;99818.47;;;8.68;100.00
36788;BME280;22738;45.560;9.434;2022-12-24T06:09:35;99813.88;;;8.73;100.00
36788;BME280;22738;45.560;9.434;2022-12-24T06:16:19;99850.13;;;8.71;100.00
36788;BME280;22738;45.560;9.434;2022-12-24T06:23:00;99835.63;;;8.69;100.00
36788;BME280;22738;45.560;9.434;2022-12-24T06:29:41;99820.88;;;8.71;100.00
36788;BME280;22738;45.560;9.434;2022-12-24T06:36:24;99797.22;;;8.63;100.00
36788;BME280;22738;45.560;9.434;2022-12-24T06:43:05;99797.13;;;8.64;100.00
36788;BME280;22738;45.560;9.434;2022-12-24T06:49:46;99826.28;;;8.66;100.00
36788;BME280;22738;45.560;9.434;2022-12-24T06:56:29;99826.16;;;8.53;100.00
36788;BME280;22738;45.560;9.434;2022-12-24T07:03:10;99861.88;;;8.61;100.00
36788;BME280;22738;45.560;9.434;2022-12-24T07:09:51;99844.47;;;8.65;100.00
36788;BME280;22738;45.560;9.434;2022-12-24T07:16:32;99860.13;;;8.61;100.00
36788;BME280;22738;45.560;9.434;2022-12-24T07:23:13;99854.31;;;8.58;100.00
36788;BME280;22738;45.560;9.434;2022-12-24T07:29:54;99861.63;;;8.66;100.00
36788;BME280;22738;45.560;9.434;2022-12-24T07:36:35;99871.16;;;8.65;100.00
36788;BME280;22738;45.560;9.434;2022-12-24T07:43:16;99883.88;;;8.68;100.00
36788;BME280;22738;45.560;9.434;2022-12-24T07:49:57;99899.56;;;8.65;100.00
36788;BME280;22738;45.560;9.434;2022-12-24T07:56:38;99883.97;;;8.67;100.00
36788;BME280;22738;45.560;9.434;2022-12-24T08:03:39;99914.31;;;8.63;100.00
36788;BME280;22738;45.560;9.434;2022-12-24T08:10:21;99965.81;;;8.82;100.00
36788;BME280;22738;45.560;9.434;2022-12-24T08:17:02;99948.56;;;8.82;100.00
36788;BME280;22738;45.560;9.434;2022-12-24T08:23:45;99914.31;;;8.79;100.00
36788;BME280;22738;45.560;9.434;2022-12-24T08:30:27;99919.22;;;8.83;100.00
36788;BME280;22738;45.560;9.434;2022-12-24T08:37:10;99936.13;;;8.89;100.00
36788;BME280;22738;45.560;9.434;2022-12-24T08:43:51;99935.63;;;8.98;100.00
36788;BME280;22738;45.560;9.434;2022-12-24T08:50:32;99959.31;;;9.06;100.00
36788;BME280;22738;45.560;9.434;2022-12-24T08:57:13;99930.47;;;8.98;100.00
36788;BME280;22738;45.560;9.434;2022-12-24T09:03:54;99942.88;;;9.07;100.00
36788;BME280;22738;45.560;9.434;2022-12-24T09:10:37;99931.44;;;9.11;100.00
36788;BME280;22738;45.560;9.434;2022-12-24T09:17:19;99953.63;;;9.15;100.00
36788;BME280;22738;45.560;9.434;2022-12-24T09:24:04;99973.22;;;9.19;100.00
36788;BME280;22738;45.560;9.434;2022-12-24T09:31:02;99961.94;;;9.20;100.00
36788;BME280;22738;45.560;9.434;2022-12-24T09:37:45;99986.97;;;9.35;100.00
36788;BME280;22738;45.560;9.434;2022-12-24T09:44:53;99981.44;;;9.41;100.00
36788;BME280;22738;45.560;9.434;2022-12-24T09:52:19;99973.72;;;9.55;100.00
36788;BME280;22738;45.560;9.434;2022-12-24T09:59:00;99963.22;;;9.72;100.00
36788;BME280;22738;45.560;9.434;2022-12-24T10:20:00;99995.22;;;9.71;100.00
36788;BME280;22738;45.560;9.434;2022-12-24T10:27:18;99998.72;;;9.70;100.00
36788;BME280;22738;45.560;9.434;2022-12-24T10:34:14;99985.03;;;9.68;100.00
36788;BME280;22738;45.560;9.434;2022-12-24T10:40:58;99984.22;;;9.82;100.00
36788;BME280;22738;45.560;9.434;2022-12-24T10:47:41;100001.94;;;10.03;100.00
36788;BME280;22738;45.560;9.434;2022-12-24T10:54:26;99986.03;;;10.10;100.00
36788;BME280;22738;45.560;9.434;2022-12-24T11:01:09;99973.19;;;10.08;100.00
36788;BME280;22738;45.560;9.434;2022-12-24T11:07:59;99982.38;;;10.14;100.00
36788;BME280;22738;45.560;9.434;2022-12-24T11:14:41;99978.66;;;10.18;100.00
36788;BME280;22738;45.560;9.434;2022-12-24T11:28:17;99951.31;;;10.42;100.00
36788;BME280;22738;45.560;9.434;2022-12-24T11:35:05;99959.59;;;10.61;100.00
36788;BME280;22738;45.560;9.434;2022-12-24T11:41:48;99970.16;;;10.72;100.00
36788;BME280;22738;45.560;9.434;2022-12-24T11:48:31;99956.91;;;10.77;100.00
36788;BME280;22738;45.560;9.434;2022-12-24T11:55:27;99984.41;;;10.65;100.00
36788;BME280;22738;45.560;9.434;2022-12-24T12:02:37;99982.34;;;10.70;100.00
36788;BME280;22738;45.560;9.434;2022-12-24T12:09:26;99984.88;;;10.71;100.00
36788;BME280;22738;45.560;9.434;2022-12-24T12:30:20;99982.88;;;10.89;100.00
36788;BME280;22738;45.560;9.434;2022-12-24T12:37:13;99981.22;;;10.88;100.00
36788;BME280;22738;45.560;9.434;2022-12-24T12:51:07;99978.53;;;10.90;100.00
36788;BME280;22738;45.560;9.434;2022-12-24T12:57:56;99973.84;;;10.68;100.00
36788;BME280;22738;45.560;9.434;2022-12-24T13:25:40;100004.50;;;10.61;100.00
36788;BME280;22738;45.560;9.434;2022-12-24T13:39:08;100006.06;;;10.50;100.00
36788;BME280;22738;45.560;9.434;2022-12-24T13:45:58;100019.41;;;10.58;100.00
36788;BME280;22738;45.560;9.434;2022-12-24T13:52:52;100030.13;;;10.52;100.00
36788;BME280;22738;45.560;9.434;2022-12-24T13:59:35;100041.44;;;10.51;100.00
36788;BME280;22738;45.560;9.434;2022-12-24T14:06:27;100044.97;;;10.36;100.00
36788;BME280;22738;45.560;9.434;2022-12-24T14:20:19;100040.59;;;10.36;100.00
36788;BME280;22738;45.560;9.434;2022-12-24T14:34:11;100056.94;;;10.23;100.00
36788;BME280;22738;45.560;9.434;2022-12-24T14:41:19;100045.19;;;10.17;100.00
36788;BME280;22738;45.560;9.434;2022-12-24T15:09:23;100065.59;;;10.07;100.00
36788;BME280;22738;45.560;9.434;2022-12-24T15:16:10;100088.31;;;10.02;100.00
36788;BME280;22738;45.560;9.434;2022-12-24T15:22:53;100130.84;;;9.98;100.00
36788;BME280;22738;45.560;9.434;2022-12-24T15:29:41;100121.13;;;10.02;100.00
36788;BME280;22738;45.560;9.434;2022-12-24T15:36:30;100146.97;;;10.03;100.00
36788;BME280;22738;45.560;9.434;2022-12-24T15:43:13;100157.13;;;10.06;100.00
36788;BME280;22738;45.560;9.434;2022-12-24T15:49:55;100151.94;;;10.06;100.00
36788;BME280;22738;45.560;9.434;2022-12-24T15:56:39;100154.16;;;9.98;100.00
36788;BME280;22738;45.560;9.434;2022-12-24T16:03:24;100154.31;;;9.95;100.00
36788;BME280;22738;45.560;9.434;2022-12-24T16:10:22;100174.88;;;9.83;100.00
36788;BME280;22738;45.560;9.434;2022-12-24T16:17:16;100195.41;;;9.86;100.00
36788;BME280;22738;45.560;9.434;2022-12-24T16:24:28;100200.53;;;9.87;100.00
36788;BME280;22738;45.560;9.434;2022-12-24T16:31:18;100208.34;;;9.86;100.00
36788;BME280;22738;45.560;9.434;2022-12-24T16:38:02;100210.13;;;9.85;100.00
36788;BME280;22738;45.560;9.434;2022-12-24T16:44:46;100221.03;;;9.90;100.00
36788;BME280;22738;45.560;9.434;2022-12-24T16:51:27;100210.28;;;9.82;100.00
36788;BME280;22738;45.560;9.434;2022-12-24T16:58:11;100211.97;;;9.83;100.00
36788;BME280;22738;45.560;9.434;2022-12-24T17:04:53;100219.75;;;9.83;100.00
36788;BME280;22738;45.560;9.434;2022-12-24T17:11:35;100228.31;;;9.84;100.00
36788;BME280;22738;45.560;9.434;2022-12-24T17:18:16;100229.16;;;9.84;100.00
36788;BME280;22738;45.560;9.434;2022-12-24T17:24:57;100239.84;;;9.78;100.00
36788;BME280;22738;45.560;9.434;2022-12-24T17:31:38;100248.88;;;9.71;100.00
36788;BME280;22738;45.560;9.434;2022-12-24T17:38:20;100264.56;;;9.68;100.00
36788;BME280;22738;45.560;9.434;2022-12-24T17:45:02;100266.53;;;9.63;100.00
36788;BME280;22738;45.560;9.434;2022-12-24T17:51:43;100263.19;;;9.61;100.00
36788;BME280;22738;45.560;9.434;2022-12-24T17:58:28;100270.41;;;9.56;100.00
36788;BME280;22738;45.560;9.434;2022-12-24T18:05:09;100275.56;;;9.56;100.00
36788;BME280;22738;45.560;9.434;2022-12-24T18:11:52;100296.28;;;9.56;100.00
36788;BME280;22738;45.560;9.434;2022-12-24T18:18:33;100294.59;;;9.55;100.00
36788;BME280;22738;45.560;9.434;2022-12-24T18:25:16;100301.97;;;9.63;100.00
36788;BME280;22738;45.560;9.434;2022-12-24T18:31:59;100291.91;;;9.57;100.00
36788;BME280;22738;45.560;9.434;2022-12-24T18:38:41;100289.25;;;9.58;100.00
36788;BME280;22738;45.560;9.434;2022-12-24T18:45:22;100284.91;;;9.59;100.00
36788;BME280;22738;45.560;9.434;2022-12-24T18:52:06;100284.84;;;9.60;100.00
36788;BME280;22738;45.560;9.434;2022-12-24T18:58:54;100284.16;;;9.57;100.00
36788;BME280;22738;45.560;9.434;2022-12-24T19:06:01;100284.09;;;9.58;100.00
36788;BME280;22738;45.560;9.434;2022-12-24T19:12:42;100288.94;;;9.64;100.00
36788;BME280;22738;45.560;9.434;2022-12-24T19:19:23;100304.13;;;9.70;100.00
36788;BME280;22738;45.560;9.434;2022-12-24T19:26:06;100307.66;;;9.69;100.00
36788;BME280;22738;45.560;9.434;2022-12-24T19:32:48;100307.66;;;9.69;100.00
36788;BME280;22738;45.560;9.434;2022-12-24T19:39:31;100318.41;;;9.77;100.00
36788;BME280;22738;45.560;9.434;2022-12-24T19:46:16;100321.75;;;9.79;100.00
36788;BME280;22738;45.560;9.434;2022-12-24T19:53:01;100331.38;;;9.77;100.00
36788;BME280;22738;45.560;9.434;2022-12-24T19:59:44;100333.91;;;9.79;100.00
36788;BME280;22738;45.560;9.434;2022-12-24T20:06:30;100353.44;;;9.84;100.00
36788;BME280;22738;45.560;9.434;2022-12-24T20:13:16;100359.31;;;9.88;100.00
36788;BME280;22738;45.560;9.434;2022-12-24T20:20:01;100368.81;;;9.87;100.00
36788;BME280;22738;45.560;9.434;2022-12-24T20:26:44;100379.16;;;9.87;100.00
36788;BME280;22738;45.560;9.434;2022-12-24T20:33:32;100381.66;;;9.89;100.00
36788;BME280;22738;45.560;9.434;2022-12-24T20:40:15;100377.47;;;9.86;100.00
36788;BME280;22738;45.560;9.434;2022-12-24T20:47:00;100367.31;;;9.83;100.00
36788;BME280;22738;45.560;9.434;2022-12-24T20:53:41;100378.94;;;9.75;100.00
36788;BME280;22738;45.560;9.434;2022-12-24T21:00:26;100378.13;;;9.74;100.00
36788;BME280;22738;45.560;9.434;2022-12-24T21:07:10;100382.47;;;9.74;100.00
36788;BME280;22738;45.560;9.434;2022-12-24T21:13:54;100399.13;;;9.68;100.00
36788;BME280;22738;45.560;9.434;2022-12-24T21:20:36;100407.50;;;9.73;100.00
36788;BME280;22738;45.560;9.434;2022-12-24T21:27:19;100412.69;;;9.73;100.00
36788;BME280;22738;45.560;9.434;2022-12-24T21:34:09;100419.84;;;9.68;100.00
36788;BME280;22738;45.560;9.434;2022-12-24T21:41:04;100425.03;;;9.68;100.00
36788;BME280;22738;45.560;9.434;2022-12-24T21:47:47;100421.13;;;9.77;100.00
36788;BME280;22738;45.560;9.434;2022-12-24T21:54:29;100434.84;;;9.79;100.00
36788;BME280;22738;45.560;9.434;2022-12-24T22:01:11;100432.31;;;9.77;100.00
36788;BME280;22738;45.560;9.434;2022-12-24T22:07:53;100429.91;;;9.74;100.00
36788;BME280;22738;45.560;9.434;2022-12-24T22:14:55;100430.06;;;9.71;100.00
36788;BME280;22738;45.560;9.434;2022-12-24T22:21:36;100441.53;;;9.66;100.00
36788;BME280;22738;45.560;9.434;2022-12-24T22:28:17;100432.97;;;9.65;100.00
36788;BME280;22738;45.560;9.434;2022-12-24T22:35:01;100435.69;;;9.62;100.00
36788;BME280;22738;45.560;9.434;2022-12-24T22:41:42;100444.06;;;9.67;100.00
36788;BME280;22738;45.560;9.434;2022-12-24T22:48:23;100445.72;;;9.68;100.00
36788;BME280;22738;45.560;9.434;2022-12-24T22:55:04;100456.25;;;9.65;100.00
36788;BME280;22738;45.560;9.434;2022-12-24T23:01:47;100457.28;;;9.61;100.00
36788;BME280;22738;45.560;9.434;2022-12-24T23:08:31;100466.75;;;9.62;100.00
36788;BME280;22738;45.560;9.434;2022-12-24T23:15:12;100465.69;;;9.66;100.00
36788;BME280;22738;45.560;9.434;2022-12-24T23:21:53;100472.31;;;9.72;100.00
36788;BME280;22738;45.560;9.434;2022-12-24T23:28:36;100467.41;;;9.66;100.00
36788;BME280;22738;45.560;9.434;2022-12-24T23:35:21;100476.13;;;9.65;100.00
36788;BME280;22738;45.560;9.434;2022-12-24T23:42:03;100483.19;;;9.61;100.00
36788;BME280;22738;45.560;9.434;2022-12-24T23:48:46;100480.44;;;9.64;100.00
36788;BME280;22738;45.560;9.434;2022-12-24T23:55:28;100483.78;;;9.66;100.00
